• Join FlightAware (Why Join?)
  • Login
  • US Flag 
06:49AM EDT


 

Airport Tracker/Info


-or-


 

Live Flight TrackerFlight Track Log ✈ N762NC ✈ 06-Oct-2013 ✈ KATL - KSAV

Flight Track Log - Related Links

Times and Time Zones

All times are in EDT time to prevent confusion due to time zone crossing. See the N762NC flight status page for this flight to view local times or setup timezone preferences in your user account.

Time Position Orientation Groundspeed Altitude Reporting Facility
EDT Latitude Longitude Course Direction KTS MPH feet Rate Location/Type
11:30PM 33.6333 -84.4500 128° Southeast 204 235 3,400  Level Atlanta TRACON
11:31PM 33.6200 -84.5178 257° West 410 472 3,500 1,560 Climbing Atlanta Center
11:32PM 33.5925 -84.6000 248° West 333 383 6,500 2,760 Climbing Atlanta Center
11:33PM 33.4963 -84.1152 163° South  Level Estimated
11:33PM 33.5278 -84.5994 180° South 266 306 9,100  Level Atlanta Center
11:34PM 33.3989 -84.1345 189° South  Level FlightAware Approximate
11:34PM 33.4614 -84.5394 143° Southeast 319 367 10,900  Level Atlanta Center
11:35PM 33.3549 -84.0288 128° Southeast  Level Estimated
11:35PM 33.4033 -84.4544 129° Southeast 327 376 12,500  Level Atlanta Center
11:36PM 33.3450 -84.3572 126° Southeast 347 399 15,000 2,100 Climbing Atlanta Center
11:37PM 33.2953 -84.2725 125° Southeast 347 399 16,700 1,800 Climbing Atlanta Center
11:38PM 33.2328 -84.1778 128° Southeast 359 413 18,700 1,800 Climbing Atlanta Center
11:39PM 33.1700 -84.0858 129° Southeast 359 413 20,300 1,320 Climbing Atlanta Center
11:40PM 33.0969 -83.9867 131° Southeast 376 433 21,400 1,020 Climbing Atlanta Center
11:41PM 33.0239 -83.8878 131° Southeast 395 455 22,400 780 Climbing Atlanta Center
11:42PM 32.9653 -83.7614 119° Southeast 422 486 23,000 300 Climbing Atlanta Center
11:43PM 32.9294 -83.6131 106° East 428 493 23,000  Level Atlanta Center
11:44PM 32.9017 -83.4600 102° East 451 519 23,000  Level Atlanta Center
11:45PM 32.8819 -83.3167 99° East 451 519 23,000  Level Atlanta Center
11:46PM 32.8581 -83.1608 100° East 440 506 23,000  Level Atlanta Center
11:47PM 32.8319 -83.0253 103° East 429 494 23,000  Level Atlanta Center
11:48PM 32.8036 -82.8922 104° East 419 482 23,000  Level Atlanta Center
11:49PM 32.7689 -82.7592 107° East 414 476 23,000  Level Atlanta Center
11:50PM 32.7319 -82.6214 108° East 421 484 23,000 -1,140 Level Atlanta Center
11:52PM 32.6728 -82.3744 106° East 393 452 19,500 -2,100 Descending Jacksonville Center
11:53PM 32.6347 -82.2536 110° East 386 444 16,700 -2,100 Descending Jacksonville Center
11:54PM 32.5964 -82.1456 113° Southeast 374 430 15,300 -1,080 Descending Jacksonville Center
11:55PM 32.5667 -82.0494 110° East 339 390 14,600 -1,200 Descending Jacksonville Center
11:56PM 32.5347 -81.9708 116° Southeast 284 327 12,900 -1,680 Descending Jacksonville Center
11:57PM 32.5422 -81.8675 85° East 265 305 11,300 -1,260 Descending Jacksonville Center
11:58PM 32.5667 -81.7858 70° East 260 299 10,400 -1,080 Descending Jacksonville Center
11:59PM 32.5889 -81.7067 72° East 260 299 9,200 -1,080 Descending Jacksonville Center
12:00AM 32.5925 -81.6325 87° East 242 278 8,300 -960 Descending Jacksonville Center
12:01AM 32.5728 -81.5517 106° East 226 260 7,300 -960 Descending Jacksonville Center
12:02AM 32.5511 -81.4828 110° East 226 260 6,400 -1,080 Descending Jacksonville Center
12:03AM 32.5294 -81.4192 112° Southeast 226 260 5,200 -960 Descending Jacksonville Center
12:04AM 32.5058 -81.3531 113° Southeast 226 260 4,500 -600 Descending Jacksonville Center
12:05AM 32.4797 -81.2769 112° Southeast 226 260 4,100 -300 Descending Jacksonville Center
12:06AM 32.4561 -81.2111 113° Southeast 226 260 4,000 -60 Descending Jacksonville Center
12:07AM 32.4058 -81.1997 169° South 203 234 4,000  Level Jacksonville Center
12:08AM 32.3536 -81.2106 190° South 197 227 4,000  Level Jacksonville Center
12:09AM 32.2914 -81.2264 192° South 202 232 4,000 -240 Level Jacksonville Center
12:10AM 32.2392 -81.2419 194° South 202 232 3,600 -540 Descending Jacksonville Center
12:11AM 32.1956 -81.2550 194° South 182 209 3,000 -1,080 Descending Jacksonville Center
12:12AM 32.1731 -81.2897 233° Southwest 153 176 1,500 -960 Descending Jacksonville Center
12:13AM 32.1353 -81.2806 168° South 129 148 1,100 -600 Descending Jacksonville Center
12:14AM 32.1286 -81.2367 100° East 111 128 300 -420 Descending Jacksonville Center
12:15AM 32.1094 -81.2125 133° Southeast 111 128 300  Level Jacksonville Center